Ituna, Canada
Current Conditions -  °F | °C
As of 5:53 PM on Saturday 22 Nov 2014 (Local Time) from CYQV Reporting Station
Overcast Overcast  
Wind Chill: -11°   Ceiling: 1000
Heat Index: -4°   Visibility: 9mi
Dew Point: -5°   Wind: 14mph
Humidity: 93%   Direction: 90°E
Pressure: 29.26"   Gusts: NA
Location:  51.17°N, 103.5°W
Report Text: CYQV 222353Z AUTO 09012KT 9SM OVC010 M04/M05 A2926 RMK PRESFR SLP936
Loading
Personal Weather Stations






























Interactive Weather Map New forecast layout! Learn more

10-Day Weather Forecast

Advertisements
Track Severe Weather on mobile